Time;durP1;ratioP1;P1;durP2;ratioP2;P2;SDS_P1;SDS_P2;PMS_P1;PMS_P2;Temp;Humidity;BMP_temperature;BMP_pressure;BME280_temperature;BME280_humidity;BME280_pressure;Samples;Min_cycle;Max_cycle;Signal;HPM_P1;HPM_P2
2023/04/22 00:02:13;;;;;;;3.83;3.57;;;13.10;99.90;;;;;;4976904;28;20283;-66
2023/04/22 00:04:40;;;;;;;3.87;3.30;;;13.10;99.90;;;;;;4977072;28;20546;-67
2023/04/22 00:07:06;;;;;;;6.73;3.13;;;13.20;99.90;;;;;;4977234;28;20432;-67
2023/04/22 00:09:31;;;;;;;3.33;3.03;;;13.10;99.90;;;;;;4975829;28;20512;-67
2023/04/22 00:11:57;;;;;;;3.57;2.90;;;13.10;99.90;;;;;;4976747;28;20438;-67
2023/04/22 00:14:23;;;;;;;3.80;3.20;;;13.00;99.90;;;;;;4976801;28;20175;-67
2023/04/22 00:16:49;;;;;;;3.87;3.50;;;13.00;99.90;;;;;;4976767;28;20414;-66
2023/04/22 00:19:15;;;;;;;3.97;3.70;;;12.90;99.90;;;;;;4976381;28;20267;-66
2023/04/22 00:21:40;;;;;;;4.60;3.93;;;12.90;99.90;;;;;;4976208;28;20176;-67
2023/04/22 00:24:06;;;;;;;3.80;3.50;;;12.90;99.90;;;;;;4976566;28;20493;-67
2023/04/22 00:26:31;;;;;;;3.93;3.20;;;12.90;99.90;;;;;;4976657;28;20161;-66
2023/04/22 00:28:57;;;;;;;4.70;4.30;;;12.90;99.90;;;;;;4976181;28;20204;-67
2023/04/22 00:31:22;;;;;;;5.27;4.77;;;12.90;99.90;;;;;;4976770;28;20181;-67
2023/04/22 00:33:48;;;;;;;4.30;3.47;;;12.90;99.90;;;;;;4975665;28;20196;-67
2023/04/22 00:36:14;;;;;;;4.20;3.70;;;13.00;99.90;;;;;;4976775;28;20173;-67
2023/04/22 00:38:44;;;;;;;4.60;3.70;;;12.90;99.90;;;;;;4976116;28;20215;-67
2023/04/22 00:41:10;;;;;;;3.97;3.67;;;12.90;99.90;;;;;;4976711;28;20203;-66
2023/04/22 00:43:36;;;;;;;4.60;4.20;;;12.80;99.90;;;;;;4976224;28;20467;-66
2023/04/22 00:46:01;;;;;;;8.77;3.93;;;12.80;99.90;;;;;;4984006;28;20177;-67
2023/04/22 00:48:28;;;;;;;3.97;3.60;;;12.80;99.90;;;;;;4975241;28;20254;-66
2023/04/22 00:50:54;;;;;;;4.90;4.50;;;12.70;99.90;;;;;;4976081;28;20516;-66
2023/04/22 00:53:19;;;;;;;5.10;4.50;;;12.70;99.90;;;;;;4976116;28;20430;-66
2023/04/22 00:55:45;;;;;;;5.27;4.77;;;12.60;99.90;;;;;;4976116;28;20176;-66
2023/04/22 00:58:11;;;;;;;6.00;4.27;;;12.70;99.90;;;;;;4974798;28;20210;-66
2023/04/22 01:00:36;;;;;;;4.40;4.10;;;12.70;99.90;;;;;;4975839;28;20215;-66
2023/04/22 01:03:02;;;;;;;5.70;5.17;;;12.70;99.90;;;;;;4976062;28;20176;-66
2023/04/22 01:05:30;;;;;;;5.93;4.47;;;12.80;99.90;;;;;;4975627;28;20226;-66
2023/04/22 01:07:55;;;;;;;6.57;4.80;;;12.80;99.90;;;;;;4975797;28;20443;-66
2023/04/22 01:10:21;;;;;;;4.27;3.87;;;12.80;99.90;;;;;;4974762;28;20450;-66
2023/04/22 01:12:46;;;;;;;5.90;4.80;;;12.80;99.90;;;;;;4975674;28;20586;-67
2023/04/22 01:15:12;;;;;;;4.30;3.90;;;12.80;99.90;;;;;;4975922;28;20176;-67
2023/04/22 01:17:38;;;;;;;4.93;4.60;;;12.80;99.90;;;;;;4975694;28;20283;-66
2023/04/22 01:20:04;;;;;;;4.83;4.27;;;12.70;99.90;;;;;;4974612;28;20212;-66
2023/04/22 01:22:35;;;;;;;6.37;4.20;;;12.60;99.90;;;;;;4975611;28;20310;-66
2023/04/22 01:25:01;;;;;;;5.50;3.53;;;12.60;99.90;;;;;;4975612;28;20511;-67
2023/04/22 01:27:27;;;;;;;4.80;4.40;;;12.60;99.90;;;;;;4975341;28;20416;-67
2023/04/22 01:29:54;;;;;;;4.90;4.40;;;12.50;99.90;;;;;;4975431;28;20777;-67
2023/04/22 01:32:19;;;;;;;4.20;3.90;;;12.60;99.90;;;;;;4974532;28;20180;-66
2023/04/22 01:34:45;;;;;;;4.20;3.90;;;12.60;99.90;;;;;;4974739;28;20444;-66
2023/04/22 01:37:10;;;;;;;4.23;3.83;;;12.60;99.90;;;;;;4975277;28;20188;-67
2023/04/22 01:39:36;;;;;;;4.43;4.00;;;12.60;99.90;;;;;;4974947;28;20215;-66
2023/04/22 01:42:02;;;;;;;4.60;3.73;;;12.60;99.90;;;;;;4975262;28;20184;-67
2023/04/22 01:44:28;;;;;;;4.80;4.33;;;12.50;99.90;;;;;;4974396;28;20677;-66
2023/04/22 01:46:54;;;;;;;4.50;3.93;;;12.60;99.90;;;;;;4975086;28;20427;-66
2023/04/22 01:49:20;;;;;;;4.77;4.20;;;12.60;99.90;;;;;;4974750;28;20263;-66
2023/04/22 01:51:45;;;;;;;5.00;4.40;;;12.50;99.90;;;;;;4972433;28;20184;-67
2023/04/22 01:54:11;;;;;;;4.10;3.80;;;12.50;99.90;;;;;;4975933;28;20551;-67
2023/04/22 01:56:39;;;;;;;4.57;4.20;;;12.40;99.90;;;;;;4971070;28;20433;-67
2023/04/22 01:59:05;;;;;;;5.10;4.00;;;12.50;99.90;;;;;;4973184;28;20207;-67
2023/04/22 02:01:31;;;;;;;5.40;4.87;;;12.40;99.90;;;;;;4985699;28;21000;-67
2023/04/22 02:03:56;;;;;;;5.73;3.87;;;12.40;99.90;;;;;;4977152;28;20449;-68
2023/04/22 02:06:22;;;;;;;5.03;4.50;;;12.40;99.90;;;;;;4974836;28;20180;-68
2023/04/22 02:08:47;;;;;;;4.27;3.60;;;12.30;99.90;;;;;;4980238;28;20207;-68
2023/04/22 02:11:12;;;;;;;4.77;4.27;;;12.30;99.90;;;;;;4964067;28;20673;-68
2023/04/22 02:13:39;;;;;;;4.30;4.00;;;12.30;99.90;;;;;;4973688;28;20188;-68
2023/04/22 02:16:06;;;;;;;9.00;4.40;;;12.20;99.90;;;;;;4974766;28;20191;-68
2023/04/22 02:18:32;;;;;;;4.83;4.33;;;12.20;99.90;;;;;;4975947;28;20467;-68
2023/04/22 02:20:57;;;;;;;4.53;4.13;;;12.30;99.90;;;;;;4979573;28;20444;-68
2023/04/22 02:23:23;;;;;;;4.90;4.40;;;12.30;99.90;;;;;;4974363;28;20168;-68
2023/04/22 02:25:49;;;;;;;4.93;4.53;;;12.30;99.90;;;;;;4974392;28;20180;-68
2023/04/22 02:28:15;;;;;;;4.93;4.53;;;12.30;99.90;;;;;;4972685;28;20471;-68
2023/04/22 02:30:41;;;;;;;5.07;4.57;;;12.30;99.90;;;;;;4973493;28;20490;-68
2023/04/22 02:33:06;;;;;;;4.40;4.00;;;12.30;99.90;;;;;;4974093;28;20654;-68
2023/04/22 02:35:32;;;;;;;4.87;4.43;;;12.30;99.90;;;;;;4956901;28;20555;-68
2023/04/22 02:37:57;;;;;;;4.40;4.10;;;12.30;99.90;;;;;;4974117;28;20196;-68
2023/04/22 02:40:23;;;;;;;5.57;4.50;;;12.30;99.90;;;;;;4973712;28;20206;-68
2023/04/22 02:42:48;;;;;;;5.23;4.83;;;12.30;99.90;;;;;;4973286;28;20202;-68
2023/04/22 02:45:14;;;;;;;4.23;3.90;;;12.30;99.90;;;;;;4970603;28;20176;-68
2023/04/22 02:47:40;;;;;;;3.83;3.53;;;12.30;99.90;;;;;;4973084;28;20217;-68
2023/04/22 02:50:06;;;;;;;11.00;9.27;;;12.30;99.90;;;;;;4973686;28;20200;-68
2023/04/22 02:52:33;;;;;;;6.10;5.50;;;12.30;99.90;;;;;;4973724;28;20180;-68
2023/04/22 02:54:59;;;;;;;4.83;4.43;;;12.20;99.90;;;;;;4972995;28;20486;-68
2023/04/22 02:57:24;;;;;;;4.50;4.20;;;12.10;99.90;;;;;;4973879;28;20435;-68
2023/04/22 02:59:50;;;;;;;6.07;4.60;;;12.20;99.90;;;;;;4973557;28;20515;-68
2023/04/22 03:02:16;;;;;;;4.73;4.33;;;12.10;99.90;;;;;;4976478;28;20593;-68
2023/04/22 03:04:41;;;;;;;4.03;3.63;;;12.00;99.90;;;;;;4978676;28;20172;-68
2023/04/22 03:07:07;;;;;;;4.23;3.83;;;11.90;99.90;;;;;;4973006;28;20176;-68
2023/04/22 03:09:32;;;;;;;5.03;4.10;;;11.80;99.90;;;;;;4973084;28;20279;-68
2023/04/22 03:11:57;;;;;;;4.83;4.43;;;11.80;99.90;;;;;;4976933;28;20680;-68
2023/04/22 03:14:23;;;;;;;4.30;3.90;;;11.70;99.90;;;;;;4976759;28;20176;-68
2023/04/22 03:16:49;;;;;;;4.07;3.77;;;11.60;99.90;;;;;;4976675;28;20239;-68
2023/04/22 03:19:15;;;;;;;4.83;4.30;;;11.50;99.90;;;;;;4975985;28;20200;-68
2023/04/22 03:21:40;;;;;;;4.87;4.47;;;11.50;99.90;;;;;;4977171;28;20176;-68
2023/04/22 03:24:06;;;;;;;4.83;4.43;;;11.50;99.90;;;;;;4984642;28;20801;-68
2023/04/22 03:26:32;;;;;;;4.97;4.57;;;11.50;99.90;;;;;;4984238;28;20662;-68
2023/04/22 03:28:57;;;;;;;5.03;4.60;;;11.50;99.90;;;;;;4988170;28;20199;-68
2023/04/22 03:31:23;;;;;;;5.00;4.50;;;11.50;99.90;;;;;;4978014;28;20723;-68
2023/04/22 03:33:48;;;;;;;5.60;5.13;;;11.50;99.90;;;;;;4976005;28;20255;-68
2023/04/22 03:36:14;;;;;;;6.07;5.67;;;11.50;99.90;;;;;;4990294;28;20262;-68
2023/04/22 03:38:40;;;;;;;7.17;6.67;;;11.50;99.90;;;;;;4972495;28;20258;-68
2023/04/22 03:41:05;;;;;;;9.03;8.13;;;11.50;99.90;;;;;;4972808;28;20862;-68
2023/04/22 03:43:31;;;;;;;8.27;7.57;;;11.50;99.90;;;;;;4970253;28;20177;-68
2023/04/22 03:45:56;;;;;;;7.97;7.10;;;11.50;99.90;;;;;;4973121;28;20180;-68
2023/04/22 03:48:22;;;;;;;6.90;6.30;;;11.40;99.90;;;;;;4992978;23;20692;-67
2023/04/22 03:50:47;;;;;;;8.00;7.30;;;11.40;99.90;;;;;;5005634;28;20542;-67
2023/04/22 03:53:13;;;;;;;6.60;6.10;;;11.40;99.90;;;;;;5006868;28;20180;-67
2023/04/22 03:55:38;;;;;;;6.97;6.33;;;11.40;99.90;;;;;;4995946;28;20351;-67
2023/04/22 03:58:04;;;;;;;7.80;7.10;;;11.50;99.90;;;;;;5014481;28;20195;-67
2023/04/22 04:00:29;;;;;;;6.97;6.27;;;11.40;99.90;;;;;;5012637;28;20737;-67
2023/04/22 04:02:55;;;;;;;7.00;6.40;;;11.40;99.90;;;;;;5001153;28;20175;-67
2023/04/22 04:05:20;;;;;;;6.53;5.73;;;11.40;99.90;;;;;;4998950;28;20214;-66
2023/04/22 04:07:46;;;;;;;7.57;6.90;;;11.40;99.90;;;;;;5003065;28;20171;-67
2023/04/22 04:10:11;;;;;;;10.57;6.10;;;11.40;99.90;;;;;;4990699;28;20699;-66
2023/04/22 04:12:37;;;;;;;7.00;5.73;;;11.40;99.90;;;;;;4999029;28;20183;-66
2023/04/22 04:15:03;;;;;;;6.13;5.60;;;11.40;99.90;;;;;;4992305;28;20176;-66
2023/04/22 04:17:29;;;;;;;7.23;5.40;;;11.30;99.90;;;;;;4987486;28;20188;-66
2023/04/22 04:19:54;;;;;;;6.53;5.33;;;11.20;99.90;;;;;;4997573;28;20203;-66
2023/04/22 04:22:20;;;;;;;6.30;5.70;;;11.20;99.90;;;;;;4998697;28;20462;-66
2023/04/22 04:24:46;;;;;;;5.90;5.30;;;11.10;99.90;;;;;;5003651;28;20250;-66
2023/04/22 04:27:12;;;;;;;6.37;5.87;;;11.10;99.90;;;;;;5010315;28;20206;-66
2023/04/22 04:29:40;;;;;;;6.03;5.10;;;11.10;99.90;;;;;;4991145;28;20741;-66
2023/04/22 04:32:09;;;;;;;5.70;5.20;;;11.00;99.90;;;;;;5006511;28;20431;-66
2023/04/22 04:34:36;;;;;;;6.27;5.67;;;11.10;99.90;;;;;;4992233;28;20513;-66
2023/04/22 04:37:02;;;;;;;4.93;4.53;;;11.10;99.90;;;;;;4992243;28;20419;-66
2023/04/22 04:39:27;;;;;;;5.23;4.73;;;11.10;99.90;;;;;;4997998;28;20522;-66
2023/04/22 04:41:57;;;;;;;6.53;5.13;;;11.10;99.90;;;;;;4993855;28;20180;-66
2023/04/22 04:44:23;;;;;;;5.80;5.20;;;11.10;99.90;;;;;;5003547;28;20226;-66
2023/04/22 04:46:49;;;;;;;5.43;4.93;;;11.10;99.90;;;;;;4995805;28;20927;-67
2023/04/22 04:49:15;;;;;;;5.40;4.43;;;11.10;99.90;;;;;;4994731;28;20246;-66
2023/04/22 04:51:41;;;;;;;5.80;4.90;;;11.10;99.90;;;;;;5003645;28;20426;-67
2023/04/22 04:54:06;;;;;;;6.17;4.80;;;11.20;99.90;;;;;;4994029;28;20445;-66
2023/04/22 04:56:32;;;;;;;5.13;4.73;;;11.20;99.90;;;;;;4998469;28;20578;-66
2023/04/22 04:58:57;;;;;;;5.10;4.63;;;11.30;99.90;;;;;;5001093;28;20218;-66
2023/04/22 05:01:23;;;;;;;6.03;5.43;;;11.30;99.90;;;;;;5004020;28;20637;-66
2023/04/22 05:03:49;;;;;;;5.13;4.70;;;11.30;99.90;;;;;;5004954;28;20174;-66
2023/04/22 05:06:14;;;;;;;5.87;5.30;;;11.40;99.90;;;;;;4998444;28;20549;-66
2023/04/22 05:08:40;;;;;;;5.30;4.80;;;11.40;99.90;;;;;;5000165;28;20277;-67
2023/04/22 05:11:05;;;;;;;5.80;4.83;;;11.30;99.90;;;;;;5006435;28;20215;-66
2023/04/22 05:13:31;;;;;;;5.80;4.70;;;11.30;99.90;;;;;;5014837;28;20178;-67
2023/04/22 05:15:56;;;;;;;7.13;4.50;;;11.30;99.90;;;;;;5014906;28;20167;-66
2023/04/22 05:18:22;;;;;;;4.30;3.90;;;11.30;99.90;;;;;;4996924;28;20227;-67
2023/04/22 05:20:47;;;;;;;5.40;4.97;;;11.40;99.90;;;;;;4997486;28;20710;-67
2023/04/22 05:23:13;;;;;;;4.50;4.20;;;11.40;99.90;;;;;;5014666;28;20163;-66
2023/04/22 05:25:39;;;;;;;4.63;4.23;;;11.40;99.90;;;;;;5014809;28;20550;-66
2023/04/22 05:28:04;;;;;;;7.00;5.00;;;11.40;99.90;;;;;;5014511;28;20203;-67
2023/04/22 05:30:30;;;;;;;4.67;4.30;;;11.40;99.90;;;;;;4996197;28;20179;-66
2023/04/22 05:32:55;;;;;;;4.37;3.97;;;11.50;99.90;;;;;;5000435;28;20649;-66
2023/04/22 05:35:21;;;;;;;4.90;4.40;;;11.60;99.90;;;;;;4998615;28;20531;-66
2023/04/22 05:37:46;;;;;;;4.97;4.37;;;11.60;99.90;;;;;;5013517;28;20181;-66
2023/04/22 05:40:12;;;;;;;6.27;4.70;;;11.60;99.90;;;;;;5008259;28;20230;-66
2023/04/22 05:42:37;;;;;;;5.17;4.67;;;11.70;99.90;;;;;;4993940;28;20644;-66
2023/04/22 05:45:03;;;;;;;4.80;4.40;;;11.80;99.90;;;;;;4994679;28;20180;-66
2023/04/22 05:47:29;;;;;;;6.40;5.80;;;11.90;99.90;;;;;;5002593;28;20552;-67
2023/04/22 05:49:54;;;;;;;5.10;4.60;;;11.90;99.90;;;;;;4994212;28;20302;-66
2023/04/22 05:52:20;;;;;;;6.40;4.70;;;12.00;99.90;;;;;;4992631;28;20783;-67
2023/04/22 05:54:45;;;;;;;5.30;4.90;;;12.10;99.90;;;;;;4986492;28;20210;-67
2023/04/22 05:57:11;;;;;;;7.00;4.63;;;12.30;99.90;;;;;;4999261;28;20186;-67
2023/04/22 05:59:37;;;;;;;5.03;4.30;;;12.50;99.90;;;;;;4996018;28;20211;-67
2023/04/22 06:02:02;;;;;;;4.83;4.43;;;12.70;99.90;;;;;;4994363;28;20174;-67
2023/04/22 06:04:28;;;;;;;5.27;4.80;;;12.90;99.90;;;;;;4993727;28;20243;-67
2023/04/22 06:06:54;;;;;;;8.57;5.77;;;13.10;99.90;;;;;;4988255;28;20183;-67
2023/04/22 06:09:20;;;;;;;5.70;5.20;;;13.40;99.90;;;;;;4991814;28;20620;-69
2023/04/22 06:11:46;;;;;;;5.83;5.27;;;13.50;99.90;;;;;;5002121;28;20443;-70
2023/04/22 06:14:12;;;;;;;7.13;5.30;;;13.60;99.90;;;;;;5005624;28;20477;-70
2023/04/22 06:16:38;;;;;;;7.87;5.53;;;13.70;99.90;;;;;;4998495;28;20562;-70
2023/04/22 06:19:04;;;;;;;5.40;5.00;;;13.90;99.90;;;;;;5000220;28;20206;-69
2023/04/22 06:21:31;;;;;;;5.40;5.00;;;14.00;99.90;;;;;;5002748;28;20500;-69
2023/04/22 06:23:56;;;;;;;5.70;5.07;;;14.30;99.90;;;;;;5005150;28;20178;-69
2023/04/22 06:26:22;;;;;;;5.50;5.00;;;14.40;99.90;;;;;;4993338;28;20437;-69
2023/04/22 06:28:48;;;;;;;4.90;4.50;;;14.60;99.90;;;;;;5000330;28;20191;-69
2023/04/22 06:31:13;;;;;;;9.13;5.10;;;14.70;99.90;;;;;;5003462;28;20183;-70
2023/04/22 06:33:39;;;;;;;5.97;5.37;;;14.60;99.90;;;;;;4995954;28;20183;-69
2023/04/22 06:36:05;;;;;;;7.17;6.47;;;14.50;99.90;;;;;;5004309;28;20244;-69
2023/04/22 06:38:30;;;;;;;5.40;4.90;;;14.50;99.90;;;;;;5001313;28;20205;-70
2023/04/22 06:40:56;;;;;;;5.10;4.70;;;14.50;99.90;;;;;;4998812;28;20439;-70
2023/04/22 06:43:21;;;;;;;4.97;4.57;;;14.50;99.90;;;;;;5006970;28;20648;-70
2023/04/22 06:45:47;;;;;;;5.03;4.53;;;14.60;99.90;;;;;;5010324;28;20202;-70
2023/04/22 06:48:12;;;;;;;6.07;5.57;;;14.50;99.90;;;;;;5003960;28;20268;-70
2023/04/22 06:50:38;;;;;;;5.20;4.80;;;14.50;99.90;;;;;;5002174;28;20194;-69
2023/04/22 06:53:03;;;;;;;6.30;5.13;;;14.40;99.90;;;;;;5004681;28;20183;-69
2023/04/22 06:55:29;;;;;;;6.20;5.70;;;14.40;99.90;;;;;;4992597;28;20603;-69
2023/04/22 06:57:55;;;;;;;5.37;4.83;;;14.50;99.90;;;;;;4990602;28;20183;-70
2023/04/22 07:00:20;;;;;;;4.57;4.27;;;14.60;99.90;;;;;;4992229;28;20751;-70
2023/04/22 07:02:45;;;;;;;8.50;6.63;;;14.80;99.90;;;;;;5002903;28;20184;-70
2023/04/22 07:05:11;;;;;;;8.17;7.53;;;14.90;99.90;;;;;;5003568;28;20175;-70
2023/04/22 07:07:37;;;;;;;7.07;6.47;;;15.10;99.90;;;;;;5002746;28;20195;-70
2023/04/22 07:10:03;;;;;;;7.80;5.40;;;15.20;99.90;;;;;;4997103;28;20180;-70
2023/04/22 07:12:28;;;;;;;6.37;4.70;;;15.20;99.90;;;;;;5000752;28;20184;-70
2023/04/22 07:14:54;;;;;;;5.27;4.77;;;15.30;99.90;;;;;;5003824;28;20806;-70
2023/04/22 07:17:21;;;;;;;9.43;7.40;;;15.30;99.90;;;;;;5002053;28;20206;-69
2023/04/22 07:19:47;;;;;;;7.80;6.27;;;15.40;99.90;;;;;;4999460;28;20496;-70
2023/04/22 07:22:13;;;;;;;6.03;5.53;;;15.40;99.90;;;;;;4997384;28;20439;-69
2023/04/22 07:24:39;;;;;;;5.87;5.37;;;15.30;99.90;;;;;;5004222;28;20466;-70
2023/04/22 07:27:05;;;;;;;5.73;5.30;;;15.20;99.90;;;;;;5005500;28;20190;-69
2023/04/22 07:29:31;;;;;;;5.30;4.80;;;15.50;99.90;;;;;;4994426;28;20975;-69
2023/04/22 07:31:56;;;;;;;7.47;5.10;;;15.60;99.90;;;;;;4992454;28;20195;-70
2023/04/22 07:34:22;;;;;;;6.53;5.00;;;15.50;99.90;;;;;;5000254;28;20671;-69
2023/04/22 07:36:52;;;;;;;5.13;4.73;;;15.40;99.90;;;;;;5002663;28;20266;-69
2023/04/22 07:39:18;;;;;;;5.77;5.20;;;15.40;99.90;;;;;;4993380;28;20576;-69
2023/04/22 07:41:43;;;;;;;5.47;4.97;;;15.50;99.90;;;;;;4991435;28;20438;-70
2023/04/22 07:44:11;;;;;;;5.43;5.00;;;15.60;99.90;;;;;;4996211;28;20176;-69
2023/04/22 07:46:37;;;;;;;5.30;4.90;;;15.60;99.90;;;;;;4999502;28;20192;-69
2023/04/22 07:49:02;;;;;;;5.53;5.07;;;15.70;99.90;;;;;;4995613;28;20995;-70
2023/04/22 07:51:29;;;;;;;5.30;4.90;;;15.80;99.90;;;;;;4999580;28;20203;-69
2023/04/22 07:53:55;;;;;;;5.20;4.80;;;16.00;99.90;;;;;;4995671;28;20554;-69
2023/04/22 07:56:21;;;;;;;4.70;4.40;;;16.10;99.90;;;;;;5002789;28;20183;-69
2023/04/22 07:58:47;;;;;;;5.40;4.90;;;16.00;99.90;;;;;;4998643;28;20211;-69
2023/04/22 08:01:12;;;;;;;4.90;4.50;;;16.20;99.90;;;;;;4993404;28;20453;-69
2023/04/22 08:03:38;;;;;;;5.27;4.53;;;16.30;99.90;;;;;;4996717;28;20184;-69
2023/04/22 08:06:03;;;;;;;5.03;4.63;;;16.50;99.90;;;;;;4989284;28;20559;-69
2023/04/22 08:08:29;;;;;;;7.10;3.77;;;16.70;99.90;;;;;;4991278;28;20274;-69
2023/04/22 08:10:54;;;;;;;4.80;3.70;;;16.80;99.90;;;;;;4999815;28;20574;-69
2023/04/22 08:13:20;;;;;;;3.70;3.40;;;16.80;99.90;;;;;;4992382;28;20645;-70
2023/04/22 08:15:45;;;;;;;3.53;3.33;;;16.60;99.90;;;;;;5002229;28;20202;-69
2023/04/22 08:18:11;;;;;;;4.47;3.40;;;16.70;99.90;;;;;;5003829;28;20217;-69
2023/04/22 08:20:36;;;;;;;4.07;3.67;;;16.90;99.90;;;;;;4996654;28;20219;-69
2023/04/22 08:23:02;;;;;;;3.97;3.67;;;17.10;99.90;;;;;;4997054;28;20186;-69
2023/04/22 08:25:28;;;;;;;5.23;3.70;;;17.00;99.90;;;;;;5001598;28;20179;-69
2023/04/22 08:27:54;;;;;;;3.13;2.93;;;17.10;99.90;;;;;;4991844;28;20636;-69
2023/04/22 08:30:19;;;;;;;3.87;3.60;;;17.30;99.90;;;;;;5002155;28;20449;-72
2023/04/22 08:32:45;;;;;;;3.93;3.63;;;17.90;99.90;;;;;;5001889;28;20196;-69
2023/04/22 08:35:11;;;;;;;4.10;3.80;;;18.20;99.90;;;;;;4996515;28;20202;-69
2023/04/22 08:37:36;;;;;;;3.60;3.30;;;18.80;99.90;;;;;;5002429;28;20194;-69
2023/04/22 08:40:03;;;;;;;3.90;3.60;;;19.20;99.90;;;;;;5006351;28;20718;-69
2023/04/22 08:42:29;;;;;;;4.17;3.87;;;19.20;99.90;;;;;;4993381;28;20646;-70
2023/04/22 08:44:55;;;;;;;3.93;3.57;;;19.40;99.90;;;;;;4998917;28;20828;-69
2023/04/22 08:47:21;;;;;;;5.17;3.57;;;19.70;99.90;;;;;;5001295;28;20504;-70
2023/04/22 08:49:46;;;;;;;4.40;4.00;;;20.10;99.90;;;;;;5005122;28;20473;-70
2023/04/22 08:52:14;;;;;;;5.00;4.43;;;20.20;99.90;;;;;;5007487;28;20672;-69
2023/04/22 08:54:40;;;;;;;3.60;3.33;;;20.10;99.90;;;;;;5003280;28;20172;-70
2023/04/22 08:57:07;;;;;;;3.90;3.57;;;19.90;99.90;;;;;;5002684;28;20526;-70
2023/04/22 08:59:34;;;;;;;3.83;3.40;;;20.20;99.90;;;;;;5003092;28;20837;-70
2023/04/22 09:02:01;;;;;;;4.60;3.23;;;20.50;99.90;;;;;;5003069;28;20516;-70
2023/04/22 09:04:26;;;;;;;3.97;3.67;;;20.70;99.90;;;;;;5001551;28;20456;-69
2023/04/22 09:06:52;;;;;;;5.10;3.77;;;20.90;99.90;;;;;;5009321;28;20933;-70
2023/04/22 09:09:18;;;;;;;3.57;3.33;;;21.20;99.90;;;;;;5002119;28;20698;-70
2023/04/22 09:11:44;;;;;;;3.97;3.67;;;21.30;99.90;;;;;;5004853;28;20183;-70
2023/04/22 09:14:10;;;;;;;3.50;3.30;;;21.50;99.90;;;;;;5006002;28;20811;-70
2023/04/22 09:16:46;;;;;;;7.67;3.87;;;22.00;99.70;;;;;;5005080;28;20179;-70
2023/04/22 09:19:13;;;;;;;3.60;3.40;;;21.80;99.00;;;;;;5007265;28;20590;-70
2023/04/22 09:21:39;;;;;;;2.93;2.73;;;21.80;98.60;;;;;;5001659;28;20467;-70
2023/04/22 09:24:07;;;;;;;4.20;3.80;;;21.60;97.50;;;;;;4995322;28;20860;-70
2023/04/22 09:26:33;;;;;;;3.50;3.23;;;21.20;97.70;;;;;;5002376;28;20441;-70
2023/04/22 09:28:59;;;;;;;3.77;3.30;;;21.10;99.90;;;;;;5000711;28;20462;-70
2023/04/22 09:31:26;;;;;;;3.03;2.83;;;21.30;99.90;;;;;;5008711;28;20258;-70
2023/04/22 09:33:56;;;;;;;3.80;3.50;;;21.60;98.40;;;;;;5004490;28;20544;-69
2023/04/22 09:36:28;;;;;;;4.13;3.73;;;22.00;98.20;;;;;;5005653;28;20441;-69
2023/04/22 09:38:56;;;;;;;3.50;3.30;;;22.50;96.00;;;;;;4999442;28;20474;-69
2023/04/22 09:41:40;;;;;;;3.00;2.80;;;22.80;95.60;;;;;;5010803;28;20437;-70
2023/04/22 09:44:15;;;;;;;2.73;2.50;;;22.70;94.10;;;;;;5000636;28;20895;-71
2023/04/22 09:46:42;;;;;;;3.57;3.00;;;22.90;92.30;;;;;;5009378;28;20797;-69
2023/04/22 09:49:08;;;;;;;3.27;3.07;;;23.40;91.40;;;;;;5002108;28;20562;-70
2023/04/22 09:51:34;;;;;;;2.93;2.73;;;23.30;90.70;;;;;;4994306;28;20936;-69
2023/04/22 09:54:07;;;;;;;3.00;2.70;;;24.10;87.70;;;;;;5000655;28;20176;-69
2023/04/22 09:56:50;;;;;;;3.03;2.83;;;24.40;86.10;;;;;;4996224;28;20175;-69
2023/04/22 09:59:21;;;;;;;3.07;2.83;;;24.20;84.50;;;;;;5001685;28;20492;-70
2023/04/22 10:01:47;;;;;;;3.03;2.47;;;24.60;82.30;;;;;;5001162;28;20430;-70
2023/04/22 10:04:14;;;;;;;3.93;2.90;;;24.90;78.40;;;;;;4991245;28;20448;-70
2023/04/22 10:06:40;;;;;;;4.00;2.90;;;25.50;76.10;;;;;;4994211;28;20990;-70
2023/04/22 10:09:06;;;;;;;2.77;2.57;;;26.40;72.70;;;;;;5004031;28;20541;-71
2023/04/22 10:11:33;;;;;;;2.07;1.97;;;26.50;65.50;;;;;;4996975;28;20179;-70
2023/04/22 10:14:02;;;;;;;2.43;2.23;;;25.60;58.10;;;;;;4992859;28;20449;-71
2023/04/22 10:16:32;;;;;;;2.87;2.67;;;25.40;58.90;;;;;;4999513;28;20446;-70
2023/04/22 10:19:02;;;;;;;2.97;2.77;;;26.60;62.90;;;;;;4990804;28;20971;-70
2023/04/22 10:21:30;;;;;;;2.40;2.30;;;27.20;59.00;;;;;;5000973;28;20463;-70
2023/04/22 10:23:57;;;;;;;2.40;2.20;;;28.10;56.80;;;;;;5000892;28;20528;-70
2023/04/22 10:26:50;;;;;;;2.20;2.10;;;28.70;55.90;;;;;;4990647;28;20574;-70
2023/04/22 10:29:18;;;;;;;2.63;2.43;;;29.20;53.70;;;;;;4996325;28;20457;-70
2023/04/22 10:31:50;;;;;;;3.00;2.80;;;28.80;50.10;;;;;;5001552;28;20850;-70
2023/04/22 10:34:17;;;;;;;2.53;2.23;;;27.50;49.80;;;;;;4999114;28;20470;-70
2023/04/22 10:36:52;;;;;;;3.80;3.43;;;28.00;49.60;;;;;;5008133;28;20437;-70
2023/04/22 10:39:20;;;;;;;2.77;2.57;;;28.90;47.40;;;;;;5001829;28;20504;-70
2023/04/22 10:42:10;;;;;;;2.43;2.23;;;28.40;46.90;;;;;;5003512;28;20427;-69
2023/04/22 10:45:01;;;;;;;2.83;2.43;;;29.60;45.80;;;;;;4995411;28;20435;-70
2023/04/22 10:47:29;;;;;;;3.00;2.23;;;28.70;46.60;;;;;;4997303;28;20453;-69
2023/04/22 10:50:10;;;;;;;2.93;2.73;;;29.70;45.90;;;;;;4994760;28;20543;-70
2023/04/22 10:52:36;;;;;;;3.47;2.70;;;30.50;44.00;;;;;;5003108;28;20589;-69
2023/04/22 10:55:02;;;;;;;4.27;2.33;;;29.30;42.00;;;;;;4997258;28;20847;-70
2023/04/22 10:57:47;;;;;;;2.37;2.17;;;28.10;41.40;;;;;;5000152;28;20237;-69
2023/04/22 11:00:28;;;;;;;4.47;2.60;;;27.10;40.90;;;;;;5007328;28;20475;-71
2023/04/22 11:03:09;;;;;;;5.40;2.53;;;27.30;41.30;;;;;;5006655;28;20441;-70
2023/04/22 11:05:36;;;;;;;3.27;3.07;;;27.10;41.50;;;;;;4996047;28;20542;-69
2023/04/22 11:08:12;;;;;;;3.23;2.93;;;27.50;41.20;;;;;;4988543;28;20946;-70
2023/04/22 11:10:46;;;;;;;2.80;2.60;;;28.70;41.30;;;;;;4994889;28;20962;-69
2023/04/22 11:13:30;;;;;;;3.50;2.40;;;28.20;40.30;;;;;;5003812;28;20581;-69
2023/04/22 11:15:55;;;;;;;3.20;2.23;;;28.20;40.50;;;;;;5001580;28;20450;-69
2023/04/22 11:18:24;;;;;;;3.23;2.00;;;27.60;39.80;;;;;;4996721;28;20454;-69
2023/04/22 11:20:52;;;;;;;2.97;2.77;;;27.20;40.20;;;;;;4999128;28;20284;-71
2023/04/22 11:23:26;;;;;;;4.83;3.07;;;27.20;40.30;;;;;;5003812;28;20445;-71
2023/04/22 11:25:56;;;;;;;5.73;5.23;;;26.80;40.60;;;;;;4993187;28;21365;-71
2023/04/22 11:28:22;;;;;;;9.33;6.97;;;26.70;41.00;;;;;;4988008;28;20483;-71
2023/04/22 11:30:48;;;;;;;3.97;3.47;;;27.30;40.70;;;;;;5003017;28;20520;-69
2023/04/22 11:33:15;;;;;;;2.70;1.80;;;28.40;39.20;;;;;;5003975;28;20182;-69
2023/04/22 11:35:41;;;;;;;2.57;2.20;;;29.70;38.50;;;;;;5001644;28;20800;-69
2023/04/22 11:38:07;;;;;;;2.80;2.60;;;30.70;37.70;;;;;;4990611;28;20532;-69
2023/04/22 11:40:38;;;;;;;4.90;2.70;;;31.00;36.70;;;;;;4999357;28;20469;-69
2023/04/22 11:43:06;;;;;;;2.30;2.20;;;32.40;36.00;;;;;;5000990;28;20441;-69
2023/04/22 11:45:33;;;;;;;3.53;3.23;;;32.00;35.90;;;;;;4988734;28;20437;-70
2023/04/22 11:48:00;;;;;;;2.77;2.57;;;31.40;34.90;;;;;;4986333;28;20461;-69
2023/04/22 11:50:28;;;;;;;3.17;2.97;;;29.80;36.90;;;;;;5003299;28;20463;-69
2023/04/22 11:53:01;;;;;;;3.20;2.90;;;30.10;37.20;;;;;;4988600;28;20517;-69
2023/04/22 11:55:30;;;;;;;2.70;2.20;;;30.00;36.90;;;;;;4986625;28;20809;-69
2023/04/22 11:58:01;;;;;;;2.63;2.40;;;29.70;37.40;;;;;;4998592;28;20476;-69
2023/04/22 12:00:30;;;;;;;3.87;3.00;;;28.70;38.60;;;;;;4995449;28;20803;-69
2023/04/22 12:03:06;;;;;;;2.83;2.63;;;27.60;38.80;;;;;;4995708;28;20437;-71
2023/04/22 12:05:46;;;;;;;3.67;2.63;;;26.60;40.40;;;;;;4997987;28;21018;-71
2023/04/22 12:08:17;;;;;;;3.30;3.00;;;26.10;42.00;;;;;;4983639;28;22379;-72
2023/04/22 12:10:54;;;;;;;2.83;2.53;;;26.50;42.30;;;;;;4987281;28;20445;-71
2023/04/22 12:13:25;;;;;;;3.23;2.67;;;26.60;42.00;;;;;;4991163;28;20435;-71
2023/04/22 12:16:03;;;;;;;3.47;3.10;;;26.60;42.30;;;;;;4985123;28;21711;-70
2023/04/22 12:18:36;;;;;;;2.63;2.43;;;26.10;42.50;;;;;;4984008;28;20491;-71
2023/04/22 12:21:13;;;;;;;2.80;2.60;;;25.60;43.90;;;;;;4982704;28;20471;-71
2023/04/22 12:23:57;;;;;;;3.70;2.50;;;26.10;43.70;;;;;;4988286;28;20539;-68
2023/04/22 12:26:25;;;;;;;3.13;2.83;;;26.20;43.40;;;;;;4986881;28;20434;-71
2023/04/22 12:28:51;;;;;;;4.10;2.90;;;25.80;44.00;;;;;;4986469;28;20476;-71
2023/04/22 12:31:17;;;;;;;3.53;3.23;;;25.40;44.00;;;;;;4988913;28;20435;-70
2023/04/22 12:33:44;;;;;;;4.30;2.77;;;25.00;44.10;;;;;;4987309;28;20176;-70
2023/04/22 12:36:10;;;;;;;2.90;2.73;;;24.70;44.70;;;;;;4982182;28;20182;-72
2023/04/22 12:38:36;;;;;;;2.80;2.57;;;25.20;44.80;;;;;;5004623;28;20538;-72
2023/04/22 12:41:03;;;;;;;2.63;2.33;;;25.40;44.40;;;;;;5008906;28;20203;-72
2023/04/22 12:43:28;;;;;;;11.93;3.50;;;25.10;43.80;;;;;;4995813;28;20175;-71
2023/04/22 12:45:57;;;;;;;3.10;2.60;;;25.10;44.80;;;;;;4999102;28;20493;-72